createdAt,value
2023-01-23T00:01:53.064Z,3.17
2023-01-23T00:04:21.370Z,2.67
2023-01-23T00:06:50.641Z,2.90
2023-01-23T00:09:19.009Z,2.53
2023-01-23T00:11:56.154Z,2.93
2023-01-23T00:14:24.471Z,2.97
2023-01-23T00:16:54.087Z,2.77
2023-01-23T00:19:22.392Z,3.30
2023-01-23T00:21:50.640Z,3.00
2023-01-23T00:24:19.057Z,3.40
2023-01-23T00:26:47.269Z,3.30
2023-01-23T00:29:16.333Z,3.20
2023-01-23T00:31:44.765Z,3.30
2023-01-23T00:34:16.282Z,3.40
2023-01-23T00:36:46.095Z,3.10
2023-01-23T00:39:19.427Z,2.93
2023-01-23T00:41:49.492Z,3.53
2023-01-23T00:44:18.812Z,3.20
2023-01-23T00:46:47.613Z,3.30
2023-01-23T00:49:17.789Z,3.13
2023-01-23T00:51:46.640Z,3.73
2023-01-23T00:54:15.352Z,3.40
2023-01-23T00:56:44.124Z,3.57
2023-01-23T00:59:12.466Z,3.67
2023-01-23T01:01:40.946Z,3.70
2023-01-23T01:04:09.379Z,3.27
2023-01-23T01:06:39.206Z,3.50
2023-01-23T01:09:07.670Z,3.53
2023-01-23T01:11:35.935Z,3.37
2023-01-23T01:14:04.545Z,3.30
2023-01-23T01:16:32.912Z,2.83
2023-01-23T01:19:01.188Z,3.30
2023-01-23T01:21:30.154Z,3.30
2023-01-23T01:23:59.788Z,2.70
2023-01-23T01:26:29.040Z,3.10
2023-01-23T01:28:57.677Z,2.67
2023-01-23T01:31:25.996Z,2.70
2023-01-23T01:33:56.016Z,3.00
2023-01-23T01:36:25.586Z,3.23
2023-01-23T01:38:53.868Z,2.80
2023-01-23T01:41:23.483Z,2.43
2023-01-23T01:43:53.280Z,2.30
2023-01-23T01:46:23.843Z,2.60
2023-01-23T01:49:10.017Z,2.43
2023-01-23T01:51:45.800Z,3.23
2023-01-23T01:54:23.118Z,2.80
2023-01-23T01:57:01.643Z,2.90
2023-01-23T01:59:35.977Z,3.53
2023-01-23T02:02:13.977Z,3.60
2023-01-23T02:04:46.107Z,3.70
2023-01-23T02:07:22.960Z,3.60
2023-01-23T02:09:52.251Z,3.60
2023-01-23T02:12:21.979Z,4.03
2023-01-23T02:14:50.635Z,4.50
2023-01-23T02:17:19.643Z,4.27
2023-01-23T02:20:08.962Z,3.97
2023-01-23T02:22:50.147Z,5.13
2023-01-23T02:25:31.583Z,4.27
2023-01-23T02:28:02.297Z,5.03
2023-01-23T02:30:32.639Z,5.40
2023-01-23T02:33:10.317Z,4.77
2023-01-23T02:35:39.132Z,5.20
2023-01-23T02:38:11.364Z,5.23
2023-01-23T02:40:43.399Z,5.53
2023-01-23T02:43:23.332Z,5.87
2023-01-23T02:45:58.203Z,6.27
2023-01-23T02:48:26.645Z,5.20
2023-01-23T02:50:55.064Z,5.50
2023-01-23T02:53:25.627Z,6.33
2023-01-23T02:55:54.295Z,5.80
2023-01-23T02:58:43.499Z,5.60
2023-01-23T03:01:12.201Z,5.57
2023-01-23T03:03:42.275Z,5.80
2023-01-23T03:06:12.475Z,6.23
2023-01-23T03:08:47.355Z,5.93
2023-01-23T03:11:17.813Z,5.53
2023-01-23T03:13:48.504Z,5.70
2023-01-23T03:16:17.000Z,5.93
2023-01-23T03:18:54.161Z,5.70
2023-01-23T03:21:22.952Z,6.30
2023-01-23T03:23:52.157Z,6.20
2023-01-23T03:26:20.534Z,6.20
2023-01-23T03:29:08.662Z,6.00
2023-01-23T03:31:37.175Z,6.50
2023-01-23T03:34:05.712Z,5.93
2023-01-23T03:36:37.303Z,6.30
2023-01-23T03:39:24.795Z,5.83
2023-01-23T03:41:54.243Z,6.20
2023-01-23T03:44:25.621Z,5.63
2023-01-23T03:46:54.372Z,5.83
2023-01-23T03:49:24.168Z,6.33
2023-01-23T03:51:58.917Z,5.80
2023-01-23T03:54:27.762Z,6.00
2023-01-23T03:56:56.433Z,6.27
2023-01-23T03:59:52.279Z,5.90
2023-01-23T04:02:22.782Z,6.20
2023-01-23T04:04:51.016Z,5.67
2023-01-23T04:07:20.102Z,6.00
2023-01-23T04:09:48.752Z,5.87
2023-01-23T04:12:17.755Z,5.60
2023-01-23T04:14:51.102Z,5.67
2023-01-23T04:17:19.342Z,5.57
2023-01-23T04:19:47.714Z,5.60
2023-01-23T04:22:16.315Z,5.30
2023-01-23T04:24:48.445Z,5.70
2023-01-23T04:27:16.760Z,5.50
2023-01-23T04:29:47.921Z,5.43
2023-01-23T04:32:17.822Z,5.70
2023-01-23T04:34:48.097Z,5.30
2023-01-23T04:37:16.981Z,5.17
2023-01-23T04:39:46.596Z,5.13
2023-01-23T04:42:15.414Z,5.00
2023-01-23T04:44:58.560Z,4.83
2023-01-23T04:47:47.340Z,4.67
2023-01-23T04:50:17.535Z,4.47
2023-01-23T04:52:48.000Z,4.47
2023-01-23T04:55:16.785Z,4.87
2023-01-23T04:57:45.543Z,4.73
2023-01-23T05:00:31.957Z,5.20
2023-01-23T05:03:03.523Z,5.60
2023-01-23T05:05:32.786Z,5.60
2023-01-23T05:08:02.520Z,5.40
2023-01-23T05:10:31.972Z,5.60
2023-01-23T05:13:06.840Z,5.50
2023-01-23T05:15:35.248Z,5.70
2023-01-23T05:18:05.141Z,6.53
2023-01-23T05:20:36.606Z,6.23
2023-01-23T05:23:06.537Z,6.30
2023-01-23T05:25:42.893Z,6.83
2023-01-23T05:28:11.842Z,6.93
2023-01-23T05:30:46.107Z,6.53
2023-01-23T05:33:31.532Z,6.83
2023-01-23T05:36:00.788Z,7.03
2023-01-23T05:38:29.234Z,6.77
2023-01-23T05:40:57.649Z,7.10
2023-01-23T05:43:44.961Z,7.30
2023-01-23T05:46:22.124Z,6.93
2023-01-23T05:48:54.869Z,7.77
2023-01-23T05:51:31.353Z,7.50
2023-01-23T05:54:01.574Z,7.67
2023-01-23T05:56:31.152Z,7.87
2023-01-23T05:59:18.154Z,7.63
2023-01-23T06:01:55.187Z,7.10
2023-01-23T06:04:43.471Z,7.83
2023-01-23T06:07:21.792Z,8.33
2023-01-23T06:09:53.556Z,8.53
2023-01-23T06:12:21.861Z,8.20
2023-01-23T06:14:50.275Z,8.13
2023-01-23T06:17:18.519Z,7.80
2023-01-23T06:19:49.113Z,8.50
2023-01-23T06:22:18.307Z,8.27
2023-01-23T06:24:59.614Z,8.30
2023-01-23T06:27:27.869Z,8.57
2023-01-23T06:29:56.665Z,8.23
2023-01-23T06:32:25.112Z,8.07
2023-01-23T06:34:55.898Z,8.60
2023-01-23T06:37:24.244Z,8.63
2023-01-23T06:39:52.684Z,8.67
2023-01-23T06:42:21.783Z,8.10
2023-01-23T06:44:51.057Z,9.03
2023-01-23T06:47:20.795Z,9.50
2023-01-23T06:49:57.884Z,8.60
2023-01-23T06:52:27.060Z,8.83
2023-01-23T06:54:55.374Z,9.17
2023-01-23T06:57:24.929Z,9.67
2023-01-23T06:59:53.290Z,9.53
2023-01-23T07:02:23.450Z,9.90
2023-01-23T07:04:53.011Z,9.90
2023-01-23T07:07:22.921Z,9.50
2023-01-23T07:09:51.847Z,10.23
2023-01-23T07:12:24.142Z,9.47
2023-01-23T07:14:52.369Z,10.13
2023-01-23T07:17:26.277Z,10.33
2023-01-23T07:19:54.777Z,9.20
2023-01-23T07:22:24.475Z,9.87
2023-01-23T07:24:52.652Z,10.03
2023-01-23T07:27:22.196Z,9.27
2023-01-23T07:29:50.485Z,10.27
2023-01-23T07:32:18.830Z,10.57
2023-01-23T07:34:47.055Z,10.40
2023-01-23T07:37:15.309Z,10.27
2023-01-23T07:39:45.504Z,9.73
2023-01-23T07:42:13.750Z,9.77
2023-01-23T07:44:43.317Z,9.73
2023-01-23T07:47:11.839Z,9.77
2023-01-23T07:49:40.115Z,9.70
2023-01-23T07:52:08.370Z,10.07
2023-01-23T07:54:36.954Z,9.90
2023-01-23T07:57:06.615Z,9.73
2023-01-23T07:59:34.927Z,10.47
2023-01-23T08:02:03.229Z,10.73
2023-01-23T08:04:31.507Z,10.47
2023-01-23T08:06:59.736Z,10.70
2023-01-23T08:09:27.944Z,10.37
2023-01-23T08:11:56.827Z,10.23
2023-01-23T08:14:26.535Z,10.00
2023-01-23T08:16:55.177Z,10.97
2023-01-23T08:19:25.280Z,10.33
2023-01-23T08:21:53.964Z,10.37
2023-01-23T08:24:22.301Z,10.07
2023-01-23T08:26:50.615Z,10.63
2023-01-23T08:29:18.928Z,10.97
2023-01-23T08:31:48.588Z,9.90
2023-01-23T08:34:16.895Z,9.80
2023-01-23T08:36:45.379Z,10.97
2023-01-23T08:39:13.639Z,10.37
2023-01-23T08:41:41.880Z,9.67
2023-01-23T08:44:10.190Z,10.83
2023-01-23T08:46:38.449Z,10.13
2023-01-23T08:49:09.303Z,10.00
2023-01-23T08:51:39.167Z,10.53
2023-01-23T08:54:07.581Z,10.53
2023-01-23T08:56:35.779Z,9.83
2023-01-23T08:59:04.071Z,11.17
2023-01-23T09:01:32.350Z,11.40
2023-01-23T09:04:00.639Z,10.37
2023-01-23T09:06:30.259Z,9.70
2023-01-23T09:08:58.566Z,10.20
2023-01-23T09:11:26.904Z,10.03
2023-01-23T09:13:55.232Z,10.10
2023-01-23T09:16:23.697Z,10.60
2023-01-23T09:18:51.976Z,10.17
2023-01-23T09:21:20.200Z,10.40
2023-01-23T09:23:49.869Z,10.27
2023-01-23T09:26:19.849Z,11.37
2023-01-23T09:28:48.307Z,10.63
2023-01-23T09:31:16.602Z,11.03
2023-01-23T09:33:45.023Z,10.77
2023-01-23T09:36:13.606Z,11.17
2023-01-23T09:38:41.867Z,11.83
2023-01-23T09:41:18.043Z,11.80
2023-01-23T09:43:58.083Z,11.00
2023-01-23T09:46:33.682Z,11.73
2023-01-23T09:49:10.962Z,12.23
2023-01-23T09:51:56.560Z,11.50
2023-01-23T09:54:38.228Z,11.93
2023-01-23T09:57:16.484Z,11.10
2023-01-23T10:00:00.209Z,12.30
2023-01-23T10:02:29.962Z,11.23
2023-01-23T10:05:02.466Z,11.80
2023-01-23T10:07:56.722Z,12.03
2023-01-23T10:10:59.434Z,12.40
2023-01-23T10:13:55.531Z,11.43
2023-01-23T10:16:55.237Z,13.00
2023-01-23T10:19:44.282Z,12.20
2023-01-23T10:22:34.574Z,11.87
2023-01-23T10:25:13.785Z,11.57
2023-01-23T10:27:46.174Z,12.33
2023-01-23T10:30:30.953Z,12.27
2023-01-23T10:33:03.500Z,12.07
2023-01-23T10:35:47.198Z,11.77
2023-01-23T10:38:28.847Z,11.53
2023-01-23T10:41:17.449Z,12.53
2023-01-23T10:43:50.098Z,11.70
2023-01-23T10:46:22.718Z,11.87
2023-01-23T10:48:52.634Z,11.60
2023-01-23T10:51:34.546Z,12.67
2023-01-23T10:54:30.884Z,12.57
2023-01-23T10:57:03.197Z,12.30
2023-01-23T10:59:36.623Z,12.13
2023-01-23T11:02:22.311Z,12.43
2023-01-23T11:04:52.908Z,11.83
2023-01-23T11:07:24.536Z,12.93
2023-01-23T11:09:58.002Z,12.47
2023-01-23T11:12:28.315Z,12.67
2023-01-23T11:15:22.521Z,12.80
2023-01-23T11:17:54.782Z,11.87
2023-01-23T11:20:27.509Z,11.77
2023-01-23T11:23:15.594Z,11.80
2023-01-23T11:25:47.043Z,12.57
2023-01-23T11:28:26.985Z,13.00
2023-01-23T11:31:13.945Z,11.93
2023-01-23T11:33:53.427Z,12.23
2023-01-23T11:36:46.264Z,12.50
2023-01-23T11:39:31.246Z,12.03
2023-01-23T11:41:59.737Z,12.70
2023-01-23T11:44:34.989Z,12.67
2023-01-23T11:47:38.704Z,12.53
2023-01-23T11:50:30.104Z,12.97
2023-01-23T11:53:08.535Z,12.07
2023-01-23T11:56:26.198Z,10.73
2023-01-23T11:59:37.085Z,11.30
2023-01-23T12:02:43.747Z,11.17
2023-01-23T12:05:52.320Z,10.57
2023-01-23T12:08:31.880Z,11.87
2023-01-23T12:11:14.134Z,12.57
2023-01-23T12:14:00.146Z,12.30
2023-01-23T12:16:58.515Z,11.97
2023-01-23T12:19:45.715Z,12.57
2023-01-23T12:22:23.964Z,12.27
2023-01-23T12:25:15.513Z,12.27
2023-01-23T12:27:46.404Z,11.57
2023-01-23T12:30:50.237Z,11.53
2023-01-23T12:33:45.286Z,11.67
2023-01-23T12:36:44.208Z,12.67
2023-01-23T12:39:48.411Z,11.87
2023-01-23T12:42:25.197Z,12.20
2023-01-23T12:45:02.966Z,12.23
2023-01-23T12:47:40.111Z,11.77
2023-01-23T12:50:20.634Z,11.10
2023-01-23T12:52:57.238Z,11.70
2023-01-23T12:55:34.264Z,11.33
2023-01-23T12:58:09.159Z,10.90
2023-01-23T13:00:53.701Z,11.50
2023-01-23T13:03:51.857Z,10.63
2023-01-23T13:06:57.046Z,10.90
2023-01-23T13:09:37.675Z,11.13
2023-01-23T13:12:21.806Z,10.93
2023-01-23T13:15:12.424Z,11.47
2023-01-23T13:17:48.043Z,10.60
2023-01-23T13:20:48.397Z,11.77
2023-01-23T13:23:32.023Z,10.57
2023-01-23T13:26:28.917Z,10.93
2023-01-23T13:29:03.587Z,10.83
2023-01-23T13:31:40.086Z,11.67
2023-01-23T13:34:41.535Z,11.50
2023-01-23T13:37:54.506Z,11.93
2023-01-23T13:40:25.648Z,11.63
2023-01-23T13:42:53.969Z,11.13
2023-01-23T13:45:28.166Z,11.67
2023-01-23T14:20:39.584Z,12.27
2023-01-23T14:23:27.543Z,12.13
2023-01-23T14:25:56.567Z,12.57
2023-01-23T14:28:25.130Z,11.93
2023-01-23T14:30:59.675Z,11.90
2023-01-23T14:33:39.770Z,12.17
2023-01-23T14:36:15.863Z,12.07
2023-01-23T14:38:46.871Z,12.13
2023-01-23T14:41:16.785Z,11.97
2023-01-23T14:43:47.009Z,12.13
2023-01-23T14:46:20.635Z,12.13
2023-01-23T14:48:56.225Z,12.33
2023-01-23T14:51:27.607Z,11.93
2023-01-23T14:53:59.401Z,11.87
2023-01-23T14:56:32.707Z,12.53
2023-01-23T14:59:05.270Z,12.80
2023-01-23T15:01:36.654Z,12.73
2023-01-23T15:04:20.550Z,13.67
2023-01-23T15:06:54.882Z,12.80
2023-01-23T15:09:31.116Z,12.83
2023-01-23T15:12:07.161Z,13.03
2023-01-23T15:14:38.680Z,13.10
2023-01-23T15:17:14.497Z,13.33
2023-01-23T15:19:45.263Z,12.97
2023-01-23T15:22:21.873Z,13.23
2023-01-23T15:24:50.336Z,14.13
2023-01-23T15:27:28.309Z,12.83
2023-01-23T15:30:31.880Z,14.20
2023-01-23T15:33:06.963Z,13.40
2023-01-23T15:35:38.745Z,12.73
2023-01-23T15:38:09.563Z,12.17
2023-01-23T15:40:39.655Z,12.73
2023-01-23T15:43:14.242Z,13.17
2023-01-23T15:45:42.548Z,13.17
2023-01-23T15:48:10.905Z,13.30
2023-01-23T15:50:40.700Z,12.80
2023-01-23T15:53:14.563Z,12.47
2023-01-23T15:55:42.954Z,13.87
2023-01-23T15:58:15.173Z,14.00
2023-01-23T16:00:43.440Z,12.80
2023-01-23T16:03:14.589Z,13.53
2023-01-23T16:05:44.284Z,13.60
2023-01-23T16:08:21.432Z,13.00
2023-01-23T16:10:51.069Z,13.70
2023-01-23T16:13:19.254Z,14.50
2023-01-23T16:15:48.429Z,16.30
2023-01-23T16:18:17.066Z,16.13
2023-01-23T16:20:47.736Z,13.60
2023-01-23T16:23:21.880Z,14.03
2023-01-23T16:25:50.840Z,14.03
2023-01-23T16:28:21.773Z,15.33
2023-01-23T16:30:51.882Z,14.80
2023-01-23T16:33:21.493Z,15.17
2023-01-23T16:35:52.787Z,14.83
2023-01-23T16:38:25.160Z,14.70
2023-01-23T16:40:56.635Z,15.03
2023-01-23T16:43:24.984Z,14.10
2023-01-23T16:45:56.502Z,14.43
2023-01-23T16:48:27.884Z,14.33
2023-01-23T16:51:08.140Z,14.23
2023-01-23T16:53:41.825Z,14.17
2023-01-23T16:56:21.703Z,14.97
2023-01-23T16:58:51.114Z,14.60
2023-01-23T17:01:22.686Z,16.37
2023-01-23T17:03:58.361Z,13.80
2023-01-23T17:06:28.170Z,14.67
2023-01-23T17:08:56.715Z,14.63
2023-01-23T17:11:30.223Z,14.67
2023-01-23T17:14:06.743Z,15.40
2023-01-23T17:16:35.189Z,14.77
2023-01-23T17:19:11.137Z,13.73
2023-01-23T17:21:40.784Z,15.00
2023-01-23T17:24:16.514Z,15.40
2023-01-23T17:26:45.588Z,15.43
2023-01-23T17:29:15.089Z,15.57
2023-01-23T17:31:43.850Z,15.87
2023-01-23T17:34:21.238Z,17.87
2023-01-23T17:36:52.830Z,14.43
2023-01-23T17:39:21.455Z,15.30
2023-01-23T17:41:51.280Z,15.90
2023-01-23T17:44:19.703Z,14.63
2023-01-23T17:46:48.979Z,15.60
2023-01-23T17:49:30.471Z,15.17
2023-01-23T17:52:03.302Z,15.20
2023-01-23T17:54:32.900Z,18.70
2023-01-23T17:57:01.523Z,16.60
2023-01-23T17:59:29.783Z,16.03
2023-01-23T18:01:59.202Z,17.30
2023-01-23T18:04:27.417Z,15.93
2023-01-23T18:06:55.693Z,16.70
2023-01-23T18:09:25.229Z,16.00
2023-01-23T18:11:54.368Z,16.67
2023-01-23T18:14:46.465Z,16.00
2023-01-23T18:17:33.428Z,16.13
2023-01-23T18:20:02.482Z,16.80
2023-01-23T18:22:31.396Z,16.90
2023-01-23T18:25:01.938Z,17.07
2023-01-23T18:27:37.167Z,15.63
2023-01-23T18:30:22.101Z,17.07
2023-01-23T18:33:31.127Z,16.23
2023-01-23T18:36:24.067Z,16.70
2023-01-23T18:39:32.604Z,16.77
2023-01-23T18:42:18.570Z,17.13
2023-01-23T18:44:55.674Z,16.27
2023-01-23T18:47:25.406Z,16.17
2023-01-23T18:49:54.708Z,18.47
2023-01-23T18:52:37.329Z,17.13
2023-01-23T18:55:18.452Z,16.87
2023-01-23T18:58:26.749Z,17.37
2023-01-23T19:01:13.234Z,17.23
2023-01-23T19:03:46.649Z,17.97
2023-01-23T19:06:23.105Z,17.13
2023-01-23T19:08:53.452Z,16.83
2023-01-23T19:11:37.243Z,18.87
2023-01-23T19:14:24.229Z,18.63
2023-01-23T19:17:02.144Z,18.40
2023-01-23T19:19:41.423Z,19.43
2023-01-23T19:22:12.937Z,18.40
2023-01-23T19:24:42.049Z,18.03
2023-01-23T19:27:21.068Z,18.03
2023-01-23T19:29:51.231Z,18.13
2023-01-23T19:32:20.385Z,18.30
2023-01-23T19:34:48.652Z,19.17
2023-01-23T19:37:17.147Z,19.27
2023-01-23T19:39:45.487Z,18.57
2023-01-23T19:42:16.197Z,20.00
2023-01-23T19:44:44.746Z,19.67
2023-01-23T19:47:14.418Z,18.90
2023-01-23T19:49:42.820Z,19.60
2023-01-23T19:52:15.408Z,19.40
2023-01-23T19:54:43.820Z,18.90
2023-01-23T19:57:13.548Z,18.93
2023-01-23T19:59:41.803Z,18.77
2023-01-23T20:02:19.567Z,18.93
2023-01-23T20:04:48.445Z,19.13
2023-01-23T20:07:16.717Z,20.13
2023-01-23T20:09:44.896Z,19.13
2023-01-23T20:12:14.487Z,18.87
2023-01-23T20:14:42.746Z,19.90
2023-01-23T20:17:11.640Z,18.63
2023-01-23T20:19:41.573Z,19.13
2023-01-23T20:22:09.898Z,18.47
2023-01-23T20:24:38.376Z,20.30
2023-01-23T20:27:06.690Z,19.27
2023-01-23T20:29:34.902Z,20.37
2023-01-23T20:32:03.746Z,20.13
2023-01-23T20:34:33.331Z,19.43
2023-01-23T20:37:03.909Z,19.10
2023-01-23T20:39:32.408Z,18.40
2023-01-23T20:42:00.643Z,18.23
2023-01-23T20:44:28.981Z,19.57
2023-01-23T20:46:57.215Z,18.93
2023-01-23T20:49:25.582Z,19.33
2023-01-23T20:51:53.974Z,18.47
2023-01-23T20:54:22.693Z,20.43
2023-01-23T20:56:51.623Z,19.67
2023-01-23T20:59:18.981Z,18.27
2023-01-23T21:02:05.542Z,18.87
2023-01-23T21:04:36.382Z,18.93
2023-01-23T21:07:05.751Z,19.27
2023-01-23T21:09:35.424Z,19.77
2023-01-23T21:12:04.349Z,19.00
2023-01-23T21:14:32.701Z,19.23
2023-01-23T21:17:01.189Z,19.73
2023-01-23T21:19:29.521Z,19.07
2023-01-23T21:21:57.778Z,18.90
2023-01-23T21:24:27.256Z,18.43
2023-01-23T21:26:56.842Z,18.17
2023-01-23T21:29:25.090Z,19.50
2023-01-23T21:31:55.107Z,20.47
2023-01-23T21:34:25.397Z,18.40
2023-01-23T21:36:54.748Z,20.37
2023-01-23T21:39:23.389Z,19.97
2023-01-23T21:41:52.142Z,19.67
2023-01-23T21:44:21.711Z,18.10
2023-01-23T21:46:50.140Z,20.77
2023-01-23T21:49:18.414Z,18.77
2023-01-23T21:51:46.736Z,19.00
2023-01-23T21:54:14.925Z,18.40
2023-01-23T21:56:43.082Z,19.00
2023-01-23T21:59:12.170Z,19.07
2023-01-23T22:01:42.880Z,19.60
2023-01-23T22:04:14.975Z,18.77
2023-01-23T22:06:45.824Z,20.37
2023-01-23T22:09:17.763Z,20.30
2023-01-23T22:11:49.474Z,20.23
2023-01-23T22:14:19.613Z,21.40
2023-01-23T22:16:50.768Z,19.03
2023-01-23T22:19:25.267Z,19.73
2023-01-23T22:21:54.630Z,20.27
2023-01-23T22:24:22.990Z,20.03
2023-01-23T22:26:51.307Z,20.20
2023-01-23T22:29:19.810Z,18.93
2023-01-23T22:31:50.453Z,20.40
2023-01-23T22:34:18.889Z,20.37
2023-01-23T22:36:47.330Z,21.17
2023-01-23T22:39:16.847Z,21.50
2023-01-23T22:41:46.212Z,20.27
2023-01-23T22:44:15.120Z,19.40
2023-01-23T22:46:43.790Z,19.90
2023-01-23T22:49:13.379Z,20.27
2023-01-23T22:51:41.626Z,20.53
2023-01-23T22:54:09.999Z,21.13
2023-01-23T22:56:38.545Z,19.50
2023-01-23T22:59:07.315Z,20.63
2023-01-23T23:01:35.560Z,21.17
2023-01-23T23:04:04.921Z,21.07
2023-01-23T23:06:34.698Z,20.97
2023-01-23T23:09:03.615Z,21.10
2023-01-23T23:11:32.014Z,19.30
2023-01-23T23:14:00.306Z,19.63
2023-01-23T23:16:32.023Z,20.20
2023-01-23T23:19:03.406Z,20.27
2023-01-23T23:21:37.041Z,21.53
2023-01-23T23:24:09.377Z,21.07
2023-01-23T23:26:37.736Z,19.23
2023-01-23T23:29:06.731Z,19.37
2023-01-23T23:31:35.209Z,19.50
2023-01-23T23:34:03.897Z,20.37
2023-01-23T23:36:32.308Z,21.13
2023-01-23T23:39:02.580Z,20.80
2023-01-23T23:41:31.061Z,20.37
2023-01-23T23:43:59.373Z,20.57
2023-01-23T23:46:28.266Z,20.80
2023-01-23T23:48:56.709Z,19.80
2023-01-23T23:51:26.503Z,18.63
2023-01-23T23:53:55.596Z,19.97
2023-01-23T23:56:28.128Z,20.07
2023-01-23T23:58:57.617Z,21.67
